Maquon, IL (61458)

1:06 AM CDT on August 24, 2016 (GMT -0500)
N9WRG | | Change Station

Elev 682 ft 40.82 °N, 90.31 °W | Updated 24 seconds ago

Scattered Clouds
Scattered Clouds
69.9 °F
Feels Like 69.9 °F
N
1.0
Wind Variable Wind from SE
Gusts 5.0 mph

Today
High -- | Low -- °F
--% Chance of Precip.
Yesterday
High -- | Low -- °F
Precip. -- in
Pressure 30.02 in
Visibility 10.0 miles
Clouds Scattered Clouds 900 ft
Scattered Clouds 8000 ft
Scattered Clouds 8500 ft
Dew Point 68 °F
Humidity 93%
Rainfall 0.00 in
Snow Depth Not available.
6:20 AM 7:44 PM
Waning Gibbous, 60% visible
METAR KGBG 240555Z AUTO 15005KT 10SM SCT009 SCT080 SCT085 20/19 A3002 RMK AO2 T02030193 10225 20203 402670155
Pressure 30.02 in
Visibility 10.0 miles
Clouds Scattered Clouds 900 ft
Scattered Clouds 8000 ft
Scattered Clouds 8500 ft
Dew Point 68 °F
Humidity 93%
Rainfall 0.00 in
Snow Depth Not available.
6:20 AM 7:44 PM
Waning Gibbous, 60% visible
METAR KGBG 240555Z AUTO 15005KT 10SM SCT009 SCT080 SCT085 20/19 A3002 RMK AO2 T02030193 10225 20203 402670155

10-Day Weather Forecast

Almanac

Astronomy

Aug. 24, 2016 Rise Set
Actual Time
Civil Twilight
Nautical Twilight
Astronomical Twilight
Moon
Length of Visible Light
Length of Day
Tomorrow will be .
, % of the Moon is Illuminated

Today's Extremes

State Highs State Lows

Community

WunderPhotos

Upload Photos

1,934,554 photos uploaded!

WunderBlog® & News

Nearby

Air Quality

  Air Quality AQ Index Pollutant
Not available.

Snow Depth

Station Depth Elevation

Earthquake Activity

City Distance Mag. Time & Date
Minimum magnitude displayed is 2.5.

Coastal Water Temperatures

Place Temperature

Stations

Nearby Weather Stations

Station Location Temp. Windchill Dew Point Humidity Wind Precip. Elev Updated Type
                   

Watches & Warnings

There are currently no watches in effect.